West Fenwick, Delaware
Current Conditions -  °F | °C
As of 8:53 PM on Friday 24 Oct 2014 (Local Time) from KOXB Reporting Station
Clear Clear  
Wind Chill: 57°   Ceiling: Unl
Heat Index: 57°   Visibility: 10mi
Dew Point: 46°   Wind: 6mph
Humidity: 67%   Direction: 280°W
Pressure: 29.89"   Gusts: NA
Location:  38.4673°N, 75.1926°W
Report Text: KOXB 250053Z AUTO 28005KT 10SM CLR 14/08 A2989 RMK AO2 SLP121 T01390078 TSNO
Loading
Personal Weather Stations






























Interactive Weather Map
Tropical Storm Tracking
New forecast layout! Learn more

10-Day Weather Forecast

Advertisements
Track Severe Weather on mobile